Time;durP1;ratioP1;P1;durP2;ratioP2;P2;SDS_P1;SDS_P2;PMS_P1;PMS_P2;Temp;Humidity;BMP_temperature;BMP_pressure;BME280_temperature;BME280_humidity;BME280_pressure;Samples;Min_cycle;Max_cycle;Signal;HPM_P1;HPM_P2
2021/12/07 00:01:38;;;;;;;22.38;16.35;;;1.10;99.90;;;;;;5088843;28;20059;-85
2021/12/07 00:04:05;;;;;;;21.88;15.23;;;1.00;99.90;;;;;;5080908;28;20093;-84
2021/12/07 00:06:31;;;;;;;22.38;15.82;;;0.90;99.90;;;;;;5070457;28;20048;-84
2021/12/07 00:08:57;;;;;;;25.83;16.10;;;1.00;99.90;;;;;;5084808;28;20044;-84
2021/12/07 00:11:25;;;;;;;24.35;15.88;;;0.90;99.90;;;;;;5077134;28;20494;-85
2021/12/07 00:13:51;;;;;;;24.90;16.70;;;1.00;99.90;;;;;;5076492;28;20056;-84
2021/12/07 00:16:19;;;;;;;22.73;15.68;;;1.00;99.90;;;;;;5085211;28;20090;-83
2021/12/07 00:18:45;;;;;;;22.77;16.67;;;1.10;99.90;;;;;;5077703;28;20048;-84
2021/12/07 00:21:11;;;;;;;24.85;16.95;;;1.00;99.90;;;;;;5091250;28;20143;-85
2021/12/07 00:23:37;;;;;;;27.15;17.45;;;0.80;99.90;;;;;;5096076;28;20146;-85
2021/12/07 00:26:04;;;;;;;23.52;17.42;;;0.80;99.90;;;;;;5091745;28;20055;-85
2021/12/07 00:28:30;;;;;;;24.98;16.45;;;1.00;99.90;;;;;;5075508;28;20112;-84
2021/12/07 00:31:03;;;;;;;26.08;18.60;;;0.80;99.90;;;;;;5092194;28;20090;-85
2021/12/07 00:33:36;;;;;;;23.00;16.73;;;0.80;99.90;;;;;;5095269;28;20048;-85
2021/12/07 00:36:03;;;;;;;23.30;17.40;;;0.90;99.90;;;;;;5090662;28;20044;-83
2021/12/07 00:38:28;;;;;;;25.15;18.23;;;0.90;99.90;;;;;;5080903;28;20044;-85
2021/12/07 00:40:58;;;;;;;22.75;16.33;;;1.00;99.90;;;;;;5057188;28;20037;-82
2021/12/07 00:43:25;;;;;;;26.90;18.03;;;0.90;99.90;;;;;;5074246;28;20047;-84
2021/12/07 00:45:54;;;;;;;28.38;16.63;;;1.00;99.90;;;;;;5055848;28;20051;-86
2021/12/07 00:48:20;;;;;;;22.17;16.05;;;0.90;99.90;;;;;;5040357;28;20044;-82
2021/12/07 00:50:47;;;;;;;20.80;15.23;;;0.90;99.90;;;;;;5074342;28;20464;-84
2021/12/07 00:53:13;;;;;;;21.85;15.27;;;0.90;99.90;;;;;;5054538;28;20056;-79
2021/12/07 00:55:46;;;;;;;22.40;15.43;;;0.90;99.90;;;;;;5088513;28;20127;-84
2021/12/07 00:58:18;;;;;;;24.90;17.05;;;0.90;99.90;;;;;;5073104;28;20074;-84
2021/12/07 01:00:47;;;;;;;19.83;14.23;;;0.90;99.90;;;;;;5061286;28;20089;-85
2021/12/07 01:03:13;;;;;;;20.75;13.98;;;0.90;99.90;;;;;;5054294;28;20079;-77
2021/12/07 01:05:40;;;;;;;19.25;14.00;;;0.80;99.90;;;;;;5042264;28;20044;-85
2021/12/07 01:27:03;;;;;;;19.63;12.82;;;0.90;99.90;;;;;;5082749;28;20036;-83
2021/12/07 01:29:28;;;;;;;19.00;12.77;;;0.90;99.90;;;;;;5081217;28;20044;-83
2021/12/07 01:32:40;;;;;;;17.27;12.55;;;0.90;99.90;;;;;;5063053;28;20051;-82
2021/12/07 01:35:26;;;;;;;18.15;11.93;;;0.90;99.90;;;;;;5071869;28;20044;-83
2021/12/07 01:51:04;;;;;;;17.35;13.63;;;1.20;99.90;;;;;;5071298;28;20056;-83
2021/12/07 01:57:46;;;;;;;16.42;10.07;;;1.00;99.90;;;;;;5072556;28;20056;-83
2021/12/07 02:01:10;;;;;;;16.13;10.85;;;1.10;99.90;;;;;;5089309;28;20039;-83
2021/12/07 02:03:38;;;;;;;16.48;11.88;;;1.20;99.90;;;;;;5072187;28;20076;-82
2021/12/07 02:06:04;;;;;;;18.52;12.68;;;1.30;99.90;;;;;;5070424;28;20043;-82
2021/12/07 02:08:30;;;;;;;17.83;11.85;;;1.20;99.90;;;;;;5065101;28;20454;-82
2021/12/07 02:11:02;;;;;;;15.38;11.95;;;1.20;99.90;;;;;;5088763;28;20048;-83
2021/12/07 02:15:56;;;;;;;15.77;11.07;;;1.30;99.90;;;;;;5070023;28;20525;-82
2021/12/07 02:18:23;;;;;;;16.67;13.98;;;1.30;99.90;;;;;;5071171;28;20094;-83
2021/12/07 02:20:50;;;;;;;13.95;11.45;;;1.20;99.90;;;;;;5073595;28;20123;-83
2021/12/07 02:23:16;;;;;;;16.33;12.15;;;1.30;99.90;;;;;;5074867;28;20117;-82
2021/12/07 02:25:42;;;;;;;15.48;11.63;;;1.20;99.90;;;;;;5052177;28;20100;-82
2021/12/07 02:28:13;;;;;;;15.05;11.52;;;1.20;99.90;;;;;;5072639;28;20174;-82
2021/12/07 02:30:41;;;;;;;15.40;11.52;;;1.30;99.90;;;;;;5062868;28;20115;-83
2021/12/07 02:33:07;;;;;;;15.27;11.73;;;1.30;99.90;;;;;;5086498;28;20042;-83
2021/12/07 02:35:32;;;;;;;15.13;12.30;;;1.30;99.90;;;;;;5070776;28;20409;-83
2021/12/07 02:37:59;;;;;;;15.00;11.43;;;1.30;99.90;;;;;;5067694;28;20135;-84
2021/12/07 02:40:25;;;;;;;15.02;12.18;;;1.40;99.90;;;;;;5085228;28;20072;-84
2021/12/07 02:42:52;;;;;;;14.57;10.23;;;1.40;99.90;;;;;;5074362;28;20118;-83
2021/12/07 02:45:20;;;;;;;14.35;11.60;;;1.40;99.90;;;;;;5089651;28;20036;-82
2021/12/07 02:47:46;;;;;;;16.10;11.65;;;1.30;99.90;;;;;;5067160;28;20044;-84
2021/12/07 02:50:12;;;;;;;15.07;11.27;;;1.30;99.90;;;;;;5069554;28;20055;-83
2021/12/07 02:52:38;;;;;;;12.48;9.90;;;1.40;99.90;;;;;;5052825;28;20131;-83
2021/12/07 02:55:06;;;;;;;13.20;9.80;;;1.30;99.90;;;;;;5076734;28;20063;-83
2021/12/07 02:57:33;;;;;;;15.77;10.07;;;1.30;99.90;;;;;;5064364;28;20054;-82
2021/12/07 03:00:07;;;;;;;12.40;10.18;;;1.40;99.90;;;;;;5056015;28;20047;-83
2021/12/07 03:02:38;;;;;;;14.93;11.40;;;1.30;99.90;;;;;;5089216;28;21145;-82
2021/12/07 03:05:16;;;;;;;14.63;11.30;;;1.40;99.90;;;;;;5090893;28;20547;-82
2021/12/07 03:08:20;;;;;;;13.70;11.48;;;1.30;99.90;;;;;;5055500;28;20064;-84
2021/12/07 03:27:24;;;;;;;13.52;10.85;;;1.00;99.90;;;;;;4992661;28;20078;-82
2021/12/07 03:29:50;;;;;;;16.10;11.50;;;0.90;99.90;;;;;;5047925;28;20083;-82
2021/12/07 03:32:16;;;;;;;13.50;9.65;;;1.10;99.90;;;;;;5076343;28;20510;-82
2021/12/07 03:34:41;;;;;;;17.58;12.05;;;1.10;99.90;;;;;;5056672;28;20057;-83
2021/12/07 03:37:07;;;;;;;13.45;11.38;;;1.00;99.90;;;;;;5061512;28;20050;-83
2021/12/07 03:39:33;;;;;;;17.70;10.80;;;0.80;99.90;;;;;;5092114;28;20036;-82
2021/12/07 03:41:58;;;;;;;17.30;12.45;;;1.10;99.90;;;;;;5082866;28;20029;-81
2021/12/07 03:44:24;;;;;;;17.67;11.15;;;1.20;99.90;;;;;;5093089;28;20513;-84
2021/12/07 03:46:50;;;;;;;16.58;12.35;;;1.10;99.90;;;;;;5083915;28;20036;-82
2021/12/07 03:49:15;;;;;;;19.02;11.57;;;1.00;99.90;;;;;;5054750;28;20059;-82
2021/12/07 03:51:41;;;;;;;18.30;12.85;;;1.10;99.90;;;;;;5061557;28;20062;-83
2021/12/07 03:54:07;;;;;;;17.67;12.05;;;1.20;99.90;;;;;;5069876;28;20085;-84
2021/12/07 03:56:33;;;;;;;16.92;10.98;;;1.20;99.90;;;;;;5055906;28;20087;-83
2021/12/07 03:58:59;;;;;;;16.55;10.07;;;1.20;99.90;;;;;;5064197;28;20032;-81
2021/12/07 04:01:25;;;;;;;14.70;10.60;;;1.10;99.90;;;;;;5080617;28;20629;-83
2021/12/07 04:03:53;;;;;;;15.73;10.30;;;1.30;99.90;;;;;;5055264;28;20040;-83
2021/12/07 04:06:20;;;;;;;16.27;10.85;;;1.00;99.90;;;;;;5075153;28;20796;-82
2021/12/07 04:08:46;;;;;;;20.42;11.02;;;1.10;99.90;;;;;;5077808;28;20127;-83
2021/12/07 04:11:12;;;;;;;18.38;10.07;;;1.10;99.90;;;;;;5083468;28;20123;-81
2021/12/07 04:13:40;;;;;;;17.75;10.00;;;1.20;99.90;;;;;;5057062;28;20044;-82
2021/12/07 04:16:08;;;;;;;17.48;10.48;;;1.20;99.90;;;;;;5075071;28;20121;-82
2021/12/07 04:18:34;;;;;;;14.80;10.70;;;1.20;99.90;;;;;;5070307;28;20125;-83
2021/12/07 04:21:01;;;;;;;19.27;12.52;;;1.50;99.90;;;;;;5070144;28;20052;-82
2021/12/07 04:23:27;;;;;;;16.55;10.98;;;1.30;99.90;;;;;;5087668;28;20378;-83
2021/12/07 04:25:53;;;;;;;18.40;11.13;;;1.20;99.90;;;;;;5065338;28;20067;-77
2021/12/07 04:28:19;;;;;;;19.45;10.60;;;1.50;99.90;;;;;;5093049;28;20121;-83
2021/12/07 04:30:45;;;;;;;17.77;11.48;;;1.40;99.90;;;;;;5088319;28;20044;-83
2021/12/07 04:33:12;;;;;;;16.48;9.73;;;1.40;99.90;;;;;;5087635;28;20053;-83
2021/12/07 04:35:40;;;;;;;17.48;11.38;;;1.50;99.90;;;;;;5075888;28;20036;-83
2021/12/07 04:38:06;;;;;;;19.75;11.15;;;1.60;99.90;;;;;;5084409;28;20040;-82
2021/12/07 04:40:32;;;;;;;22.45;11.50;;;1.30;99.90;;;;;;5086759;28;20101;-82
2021/12/07 04:42:58;;;;;;;17.75;11.52;;;1.60;99.90;;;;;;5055275;28;20504;-80
2021/12/07 04:45:35;;;;;;;18.45;10.88;;;1.30;99.90;;;;;;5080847;28;20403;-84
2021/12/07 04:58:56;;;;;;;16.13;8.88;;;1.30;99.90;;;;;;5055874;28;20045;-83
2021/12/07 05:01:23;;;;;;;15.82;8.63;;;1.40;99.90;;;;;;5077560;28;20497;-84
2021/12/07 05:03:51;;;;;;;19.33;10.30;;;1.40;99.90;;;;;;5089451;28;20040;-83
2021/12/07 05:06:18;;;;;;;14.75;9.15;;;1.20;99.90;;;;;;5070039;28;20078;-83
2021/12/07 05:08:49;;;;;;;20.92;10.20;;;1.20;99.90;;;;;;5072326;28;20044;-84
2021/12/07 05:14:10;;;;;;;17.55;9.00;;;1.30;99.90;;;;;;5069113;28;19920;-84
2021/12/07 05:16:58;;;;;;;18.00;9.50;;;1.20;99.90;;;;;;5071478;28;20048;-81
2021/12/07 05:38:28;;;;;;;16.02;8.68;;;1.30;99.90;;;;;;5087255;28;20044;-83
2021/12/07 05:40:55;;;;;;;21.08;9.65;;;1.30;99.90;;;;;;5090240;28;20050;-77
2021/12/07 05:43:20;;;;;;;19.42;9.07;;;1.50;99.90;;;;;;5070490;28;20079;-82
2021/12/07 05:45:46;;;;;;;17.50;10.52;;;1.40;99.90;;;;;;5076410;28;20144;-82
2021/12/07 05:48:13;;;;;;;15.32;8.55;;;1.50;99.90;;;;;;5071131;28;20502;-83
2021/12/07 05:50:40;;;;;;;18.90;9.45;;;1.40;99.90;;;;;;5055027;28;20483;-83
2021/12/07 05:53:08;;;;;;;13.57;7.65;;;1.30;99.90;;;;;;5071542;28;20044;-83
2021/12/07 05:55:34;;;;;;;17.27;8.15;;;1.50;99.90;;;;;;5043301;28;20892;-81
2021/12/07 05:57:59;;;;;;;13.32;7.70;;;1.50;99.90;;;;;;5058587;28;20427;-82
2021/12/07 06:00:28;;;;;;;13.63;6.63;;;1.40;99.90;;;;;;5069568;28;20115;-82
2021/12/07 06:02:58;;;;;;;16.40;8.05;;;1.20;99.90;;;;;;5071101;28;20524;-77
2021/12/07 06:05:25;;;;;;;21.05;9.25;;;1.60;99.90;;;;;;5070838;28;20132;-82
2021/12/07 06:07:51;;;;;;;15.75;7.63;;;1.50;99.90;;;;;;5076457;28;20102;-83
2021/12/07 06:10:19;;;;;;;17.90;8.50;;;1.70;99.90;;;;;;5069161;28;20037;-82
2021/12/07 06:12:45;;;;;;;16.35;7.68;;;1.70;99.90;;;;;;5082767;28;20091;-82
2021/12/07 06:15:12;;;;;;;12.75;7.53;;;1.60;99.90;;;;;;5060109;28;20048;-82
2021/12/07 06:17:37;;;;;;;16.92;8.23;;;1.60;99.90;;;;;;5045408;28;20048;-82
2021/12/07 06:20:05;;;;;;;17.55;6.68;;;1.40;99.90;;;;;;5047093;28;20036;-83
2021/12/07 06:22:31;;;;;;;18.88;8.02;;;1.60;99.90;;;;;;5066442;28;20048;-83
2021/12/07 06:24:57;;;;;;;21.65;7.75;;;1.70;99.90;;;;;;5082987;28;20043;-82
2021/12/07 06:27:22;;;;;;;15.27;7.40;;;1.90;99.90;;;;;;5064756;28;20052;-82
2021/12/07 06:29:48;;;;;;;25.73;9.52;;;1.70;99.90;;;;;;5071871;28;20040;-82
2021/12/07 06:32:14;;;;;;;24.90;9.13;;;1.70;99.90;;;;;;5076230;28;20053;-80
2021/12/07 06:34:39;;;;;;;21.25;8.23;;;2.10;99.90;;;;;;5071369;28;20044;-83
2021/12/07 06:37:06;;;;;;;17.13;7.40;;;1.80;99.90;;;;;;5052831;28;20106;-82
2021/12/07 06:39:33;;;;;;;19.90;8.55;;;2.00;99.90;;;;;;5054360;28;20414;-81
2021/12/07 06:41:58;;;;;;;19.23;7.97;;;1.80;99.90;;;;;;5060562;28;20044;-83
2021/12/07 06:44:24;;;;;;;17.20;7.75;;;1.70;99.90;;;;;;5068990;28;20051;-82
2021/12/07 06:46:50;;;;;;;20.88;9.55;;;1.70;99.90;;;;;;5051573;28;20126;-82
2021/12/07 06:49:17;;;;;;;19.05;6.28;;;1.70;99.90;;;;;;5069553;28;20484;-81
2021/12/07 06:51:43;;;;;;;21.23;8.38;;;1.80;99.90;;;;;;5068658;28;20067;-77
2021/12/07 06:54:09;;;;;;;14.32;7.05;;;1.50;99.90;;;;;;5065854;28;20040;-83
2021/12/07 06:56:34;;;;;;;21.33;7.75;;;1.70;99.90;;;;;;5060890;28;20398;-81
2021/12/07 06:59:00;;;;;;;12.57;7.38;;;1.70;99.90;;;;;;5078220;28;20132;-82
2021/12/07 07:01:25;;;;;;;14.45;7.40;;;1.40;99.90;;;;;;5072754;28;20478;-82
2021/12/07 07:03:51;;;;;;;17.73;6.95;;;1.30;99.90;;;;;;5089770;28;20044;-82
2021/12/07 07:06:17;;;;;;;18.67;7.60;;;1.50;99.90;;;;;;5083313;28;20052;-82
2021/12/07 07:08:43;;;;;;;23.08;8.52;;;1.20;99.90;;;;;;5037002;28;20075;-79
2021/12/07 07:11:09;;;;;;;17.00;7.10;;;1.20;99.90;;;;;;5067757;28;20092;-84
2021/12/07 07:13:34;;;;;;;18.67;7.97;;;1.30;99.90;;;;;;5068700;28;20502;-78
2021/12/07 07:16:01;;;;;;;20.13;8.35;;;1.20;99.90;;;;;;5051988;28;20457;-81
2021/12/07 07:18:26;;;;;;;16.55;7.93;;;1.10;99.90;;;;;;5069205;28;20051;-81
2021/12/07 07:20:54;;;;;;;25.08;9.57;;;1.30;99.90;;;;;;5075685;28;20139;-81
2021/12/07 07:23:20;;;;;;;26.83;10.00;;;1.10;99.90;;;;;;5068521;28;20116;-79
2021/12/07 07:25:46;;;;;;;16.98;8.45;;;1.00;99.90;;;;;;5064079;28;20474;-84
2021/12/07 07:28:12;;;;;;;19.73;8.98;;;1.30;99.90;;;;;;5070796;28;20056;-84
2021/12/07 07:30:37;;;;;;;29.67;9.05;;;1.20;99.90;;;;;;5056890;28;20040;-82
2021/12/07 07:33:03;;;;;;;21.65;10.95;;;1.10;99.90;;;;;;5072743;28;20059;-81
2021/12/07 07:35:29;;;;;;;16.70;8.90;;;1.10;99.90;;;;;;5083070;28;20040;-85
2021/12/07 07:37:55;;;;;;;14.60;8.85;;;1.10;99.90;;;;;;5070563;28;20055;-85
2021/12/07 07:40:22;;;;;;;23.45;9.85;;;1.30;99.90;;;;;;5071538;28;20029;-84
2021/12/07 07:42:48;;;;;;;19.23;9.05;;;1.00;99.90;;;;;;5056051;28;20056;-85
2021/12/07 07:45:15;;;;;;;19.27;8.70;;;1.20;99.90;;;;;;5078273;28;20048;-83
2021/12/07 07:47:40;;;;;;;26.13;9.63;;;1.20;99.90;;;;;;5055749;28;20036;-85
2021/12/07 07:50:07;;;;;;;30.52;9.90;;;1.10;99.90;;;;;;5055149;28;20044;-85
2021/12/07 07:52:34;;;;;;;23.50;9.65;;;1.30;99.90;;;;;;5072020;28;20282;-85
2021/12/07 07:55:00;;;;;;;17.33;8.45;;;1.20;99.90;;;;;;5055179;28;20036;-85
2021/12/07 07:57:27;;;;;;;16.83;7.30;;;1.00;99.90;;;;;;5065707;28;20043;-84
2021/12/07 07:59:53;;;;;;;15.27;8.77;;;1.00;99.90;;;;;;5093515;28;20043;-85
2021/12/07 08:02:18;;;;;;;21.35;9.38;;;1.30;99.90;;;;;;5055841;28;20199;-84
2021/12/07 08:04:44;;;;;;;12.32;6.78;;;1.10;99.90;;;;;;5078396;28;20040;-84
2021/12/07 08:07:09;;;;;;;22.13;8.75;;;1.10;99.90;;;;;;5078060;28;20466;-85
2021/12/07 08:09:35;;;;;;;21.83;7.20;;;1.30;99.90;;;;;;5056380;28;20055;-84
2021/12/07 08:12:01;;;;;;;16.63;6.97;;;1.40;99.90;;;;;;5070277;28;20068;-84
2021/12/07 08:14:27;;;;;;;14.48;6.60;;;1.20;99.90;;;;;;5069747;28;20068;-84
2021/12/07 08:16:52;;;;;;;17.80;7.40;;;1.40;99.90;;;;;;5072962;28;20076;-84
2021/12/07 08:19:18;;;;;;;12.52;6.43;;;1.20;99.90;;;;;;5069545;28;20097;-84
2021/12/07 08:21:44;;;;;;;14.73;6.13;;;1.40;99.90;;;;;;5061612;28;20033;-80
2021/12/07 08:24:09;;;;;;;17.45;6.85;;;1.30;99.90;;;;;;5077509;28;20084;-84
2021/12/07 08:26:35;;;;;;;17.80;7.75;;;1.40;99.90;;;;;;5066733;28;20072;-86
2021/12/07 08:29:01;;;;;;;19.05;7.15;;;1.40;99.90;;;;;;5070632;28;20104;-85
2021/12/07 08:31:28;;;;;;;20.80;8.15;;;1.60;99.90;;;;;;5061697;28;20076;-84
2021/12/07 08:33:54;;;;;;;18.05;5.93;;;1.70;99.90;;;;;;5057301;28;20045;-80
2021/12/07 08:36:20;;;;;;;20.27;7.65;;;1.60;99.90;;;;;;5058595;28;20049;-84
2021/12/07 08:38:47;;;;;;;18.58;5.93;;;1.80;99.90;;;;;;5063328;28;20044;-82
2021/12/07 08:41:14;;;;;;;21.80;9.27;;;1.70;99.90;;;;;;5077480;28;20543;-80
2021/12/07 08:43:41;;;;;;;19.42;6.55;;;1.80;99.90;;;;;;5074111;28;20045;-83
2021/12/07 08:46:09;;;;;;;13.32;5.50;;;1.80;99.90;;;;;;5074414;28;20094;-77
2021/12/07 08:48:35;;;;;;;17.65;6.68;;;2.00;99.90;;;;;;5073659;28;20045;-84
2021/12/07 08:51:01;;;;;;;11.02;5.13;;;1.80;99.90;;;;;;5066302;28;20045;-84
2021/12/07 08:53:28;;;;;;;18.13;6.32;;;1.90;99.90;;;;;;5060482;28;20139;-86
2021/12/07 09:01:26;;;;;;;17.13;7.28;;;1.90;99.90;;;;;;5056452;28;20052;-84
2021/12/07 09:03:54;;;;;;;19.05;6.47;;;2.00;99.90;;;;;;5061481;28;20482;-86
2021/12/07 09:06:20;;;;;;;14.52;6.18;;;1.90;99.90;;;;;;5054040;28;20051;-86
2021/12/07 09:08:45;;;;;;;11.68;4.57;;;2.20;99.90;;;;;;5060840;28;20406;-86
2021/12/07 09:11:13;;;;;;;12.35;4.57;;;2.10;99.90;;;;;;5071171;28;20043;-85
2021/12/07 09:13:40;;;;;;;11.15;3.97;;;2.30;99.90;;;;;;5078955;28;20063;-85
2021/12/07 09:16:07;;;;;;;18.88;5.43;;;2.30;99.90;;;;;;5052675;28;20076;-85
2021/12/07 09:18:33;;;;;;;11.18;4.60;;;2.10;99.90;;;;;;5070788;28;20052;-85
2021/12/07 09:21:00;;;;;;;17.65;5.65;;;2.40;99.90;;;;;;5082912;28;20038;-85
2021/12/07 09:23:26;;;;;;;13.27;4.43;;;2.40;99.90;;;;;;5104256;28;20044;-85
2021/12/07 09:25:53;;;;;;;21.65;4.90;;;2.30;99.90;;;;;;5102795;28;20039;-85
2021/12/07 09:28:20;;;;;;;19.45;5.53;;;2.60;99.90;;;;;;5093416;28;20130;-84
2021/12/07 09:30:51;;;;;;;16.90;4.32;;;2.60;99.90;;;;;;5102396;28;20036;-83
2021/12/07 09:33:19;;;;;;;15.25;3.92;;;2.60;99.90;;;;;;5072853;28;20089;-85
2021/12/07 09:35:44;;;;;;;14.82;4.97;;;2.70;99.90;;;;;;5076519;28;20096;-84
2021/12/07 09:38:11;;;;;;;15.38;5.25;;;2.60;99.90;;;;;;5087662;28;20044;-83
2021/12/07 09:40:37;;;;;;;18.48;5.10;;;2.80;99.90;;;;;;5063154;28;20056;-84
2021/12/07 09:43:04;;;;;;;17.15;4.50;;;2.80;99.90;;;;;;5080529;28;20052;-84
2021/12/07 09:45:31;;;;;;;10.15;3.33;;;2.80;99.90;;;;;;5059763;28;20055;-82
2021/12/07 09:48:02;;;;;;;13.88;5.35;;;2.90;99.90;;;;;;5091008;28;20048;-82
2021/12/07 09:50:29;;;;;;;14.98;5.20;;;3.00;99.90;;;;;;5082269;28;20121;-84
2021/12/07 09:52:54;;;;;;;15.20;5.82;;;3.10;99.90;;;;;;5039674;28;20048;-84
2021/12/07 09:55:20;;;;;;;13.35;5.78;;;3.20;99.90;;;;;;5091718;28;20127;-83
2021/12/07 09:57:47;;;;;;;20.20;5.30;;;3.30;99.90;;;;;;5090176;28;20071;-82
2021/12/07 10:00:17;;;;;;;12.45;4.10;;;3.20;99.90;;;;;;5075622;28;20040;-80
2021/12/07 10:02:44;;;;;;;14.07;3.65;;;3.10;99.90;;;;;;5052711;28;20540;-80
2021/12/07 10:05:11;;;;;;;11.80;3.88;;;2.90;99.90;;;;;;5072644;28;20406;-85
2021/12/07 10:07:37;;;;;;;13.77;4.57;;;2.80;99.90;;;;;;5077174;28;20085;-83
2021/12/07 10:10:08;;;;;;;18.13;3.83;;;3.00;99.90;;;;;;5080471;28;20134;-83
2021/12/07 10:12:36;;;;;;;13.30;4.10;;;3.00;99.90;;;;;;5060977;28;20519;-79
2021/12/07 10:15:09;;;;;;;14.80;5.38;;;2.90;99.90;;;;;;5055983;28;20390;-79
2021/12/07 10:17:38;;;;;;;18.77;4.25;;;2.90;99.90;;;;;;5080749;28;20515;-79
2021/12/07 10:20:41;;;;;;;13.10;4.35;;;2.80;99.90;;;;;;5054194;28;20044;-81
2021/12/07 10:23:16;;;;;;;17.92;6.50;;;2.90;99.90;;;;;;5055470;28;20056;-79
2021/12/07 10:26:06;;;;;;;16.08;4.35;;;3.00;99.90;;;;;;5045446;28;20058;-80
2021/12/07 10:28:38;;;;;;;13.00;3.88;;;3.00;99.90;;;;;;5070407;28;20324;-80
2021/12/07 10:31:06;;;;;;;10.05;4.32;;;3.20;99.90;;;;;;5055288;28;20079;-80
2021/12/07 10:33:37;;;;;;;17.48;6.50;;;3.30;99.90;;;;;;5060460;28;20679;-80
2021/12/07 10:36:09;;;;;;;16.52;4.03;;;3.30;99.90;;;;;;5061511;28;20040;-81
2021/12/07 10:38:35;;;;;;;16.13;4.93;;;3.50;99.90;;;;;;5035802;28;20041;-80
2021/12/07 10:41:07;;;;;;;22.23;6.63;;;3.50;99.90;;;;;;5061893;28;20036;-80
2021/12/07 10:43:55;;;;;;;25.25;6.22;;;3.70;99.90;;;;;;5051073;28;20048;-79
2021/12/07 10:46:32;;;;;;;18.48;6.00;;;3.70;99.90;;;;;;5063813;28;20049;-79
2021/12/07 10:49:29;;;;;;;20.48;6.25;;;4.00;99.90;;;;;;5053388;28;20107;-79
2021/12/07 10:52:02;;;;;;;25.05;5.63;;;4.30;99.90;;;;;;5067553;28;20096;-80
2021/12/07 10:54:31;;;;;;;15.82;4.22;;;4.40;99.90;;;;;;5058618;28;20052;-81
2021/12/07 10:56:59;;;;;;;17.52;5.60;;;4.40;99.90;;;;;;5063280;28;20057;-79
2021/12/07 10:59:26;;;;;;;16.02;6.20;;;4.50;99.90;;;;;;5075104;28;20037;-80
2021/12/07 11:01:55;;;;;;;21.52;5.97;;;4.60;99.90;;;;;;5076463;28;20055;-79
2021/12/07 11:04:36;;;;;;;17.92;5.45;;;4.90;99.90;;;;;;5061094;28;20072;-80
2021/12/07 11:07:14;;;;;;;16.40;5.03;;;4.90;99.90;;;;;;5050503;28;20044;-76
2021/12/07 11:09:56;;;;;;;14.75;5.28;;;4.90;99.90;;;;;;5053998;28;20048;-81
2021/12/07 11:12:23;;;;;;;11.88;3.88;;;5.00;99.90;;;;;;5072096;28;20070;-80
2021/12/07 11:14:53;;;;;;;19.00;3.40;;;5.00;99.90;;;;;;5082617;28;20044;-81
2021/12/07 11:17:25;;;;;;;21.33;4.65;;;5.00;99.90;;;;;;5079226;28;20028;-78
2021/12/07 11:19:52;;;;;;;16.65;4.65;;;5.20;99.90;;;;;;5079955;28;20102;-75
2021/12/07 11:22:21;;;;;;;17.95;3.78;;;5.10;99.90;;;;;;5071683;28;20047;-77
2021/12/07 11:24:48;;;;;;;10.85;3.08;;;5.20;99.90;;;;;;5072325;28;20047;-76
2021/12/07 11:30:07;;;;;;;27.55;4.95;;;5.10;99.90;;;;;;5062469;28;20047;-77
2021/12/07 11:32:34;;;;;;;18.90;4.38;;;5.00;99.90;;;;;;5057179;28;20048;-77
2021/12/07 11:35:10;;;;;;;15.27;3.35;;;5.10;99.90;;;;;;5067259;28;20090;-77
2021/12/07 11:37:38;;;;;;;14.02;4.18;;;5.10;99.90;;;;;;5054152;28;20356;-76
2021/12/07 11:40:06;;;;;;;14.80;4.68;;;5.10;99.90;;;;;;5064337;28;20444;-78
2021/12/07 11:42:38;;;;;;;10.65;3.17;;;5.10;99.90;;;;;;5057887;28;20101;-77
2021/12/07 11:45:27;;;;;;;16.52;3.70;;;5.20;99.90;;;;;;5038678;28;20413;-77
2021/12/07 11:47:59;;;;;;;15.15;6.18;;;5.10;99.90;;;;;;5066858;28;20052;-79
2021/12/07 11:50:33;;;;;;;11.77;3.55;;;5.10;99.90;;;;;;5063229;28;20044;-78
2021/12/07 11:53:08;;;;;;;20.23;5.45;;;5.10;99.90;;;;;;5087637;28;20040;-79
2021/12/07 11:55:37;;;;;;;18.73;4.78;;;5.10;99.90;;;;;;5083320;28;20071;-77
2021/12/07 11:58:05;;;;;;;15.23;4.32;;;5.30;99.90;;;;;;5064413;28;20050;-80
2021/12/07 12:00:35;;;;;;;16.73;5.13;;;5.50;99.90;;;;;;5054311;28;20507;-80
2021/12/07 12:03:05;;;;;;;17.65;4.18;;;5.60;99.90;;;;;;5059943;28;20077;-80
2021/12/07 12:05:34;;;;;;;30.20;4.80;;;5.70;99.90;;;;;;5075532;28;20123;-81
2021/12/07 12:08:01;;;;;;;14.02;4.13;;;5.60;99.90;;;;;;5059603;28;20111;-80
2021/12/07 12:10:29;;;;;;;13.23;3.35;;;5.70;99.90;;;;;;5091674;28;20043;-84
2021/12/07 12:13:21;;;;;;;18.38;5.90;;;5.70;99.90;;;;;;5086205;28;20402;-82
2021/12/07 12:16:02;;;;;;;15.13;4.65;;;5.70;99.90;;;;;;5071162;28;20121;-82
2021/12/07 12:18:40;;;;;;;18.30;4.43;;;5.70;99.90;;;;;;5036354;28;20048;-82
2021/12/07 12:21:49;;;;;;;16.40;4.00;;;5.70;99.90;;;;;;5035625;28;20048;-81
2021/12/07 12:24:40;;;;;;;13.25;3.17;;;5.70;99.90;;;;;;5031248;28;20060;-81
2021/12/07 12:27:32;;;;;;;21.80;5.70;;;5.70;99.90;;;;;;5055122;28;20053;-83
2021/12/07 12:30:00;;;;;;;17.83;4.07;;;5.60;99.90;;;;;;5091241;28;20095;-82
2021/12/07 12:32:36;;;;;;;13.30;3.47;;;5.60;99.90;;;;;;5073653;28;20044;-82
2021/12/07 12:35:05;;;;;;;18.30;3.97;;;5.60;99.90;;;;;;5082809;28;20032;-81
2021/12/07 12:37:32;;;;;;;16.05;4.35;;;5.60;99.90;;;;;;5039305;28;20071;-82
2021/12/07 12:40:11;;;;;;;16.75;3.67;;;5.60;99.90;;;;;;5091150;28;20048;-83
2021/12/07 12:42:47;;;;;;;17.85;5.15;;;5.60;99.90;;;;;;5072092;28;20040;-79
2021/12/07 12:45:27;;;;;;;17.80;4.68;;;5.60;99.90;;;;;;5090922;28;20046;-79
2021/12/07 12:48:04;;;;;;;30.83;5.93;;;5.70;99.90;;;;;;5072907;28;20071;-83
2021/12/07 12:50:33;;;;;;;28.00;4.72;;;5.70;99.90;;;;;;5071788;28;20063;-82
2021/12/07 12:53:08;;;;;;;31.33;5.25;;;5.70;99.90;;;;;;5071818;28;20087;-81
2021/12/07 12:55:47;;;;;;;12.77;4.10;;;5.70;99.90;;;;;;5070011;28;20140;-82
2021/12/07 12:58:20;;;;;;;20.92;6.80;;;5.70;99.90;;;;;;5051109;28;20051;-79
2021/12/07 13:01:10;;;;;;;15.85;4.50;;;5.60;99.90;;;;;;5058848;28;20044;-83
2021/12/07 13:03:43;;;;;;;13.13;4.32;;;5.70;99.90;;;;;;5090121;28;20528;-81
2021/12/07 13:06:32;;;;;;;13.65;4.78;;;5.60;99.90;;;;;;5064786;28;20148;-82
2021/12/07 13:09:07;;;;;;;16.30;4.95;;;5.60;99.90;;;;;;5052455;28;20048;-81
2021/12/07 13:11:38;;;;;;;9.27;3.85;;;5.60;99.90;;;;;;5056540;28;20048;-80
2021/12/07 13:14:25;;;;;;;15.50;3.40;;;5.70;99.90;;;;;;5059358;28;20079;-82
2021/12/07 13:17:03;;;;;;;11.27;2.97;;;5.60;99.90;;;;;;5052448;28;20510;-81
2021/12/07 13:19:30;;;;;;;12.05;4.07;;;5.60;99.90;;;;;;5035020;28;20044;-82
2021/12/07 13:22:03;;;;;;;9.73;3.45;;;5.60;99.90;;;;;;5051126;28;20485;-82
2021/12/07 13:24:39;;;;;;;11.60;2.83;;;5.60;99.90;;;;;;5051582;28;20049;-82
2021/12/07 13:27:11;;;;;;;12.43;4.63;;;5.60;99.90;;;;;;5069676;28;20384;-82
2021/12/07 13:29:43;;;;;;;10.35;4.50;;;5.60;99.90;;;;;;5069272;28;20184;-83
2021/12/07 13:32:10;;;;;;;12.63;2.65;;;5.50;99.90;;;;;;5088117;28;20387;-83
2021/12/07 13:34:37;;;;;;;26.48;4.55;;;5.50;99.90;;;;;;5067617;28;20119;-82
2021/12/07 13:37:10;;;;;;;12.35;4.43;;;5.40;99.90;;;;;;5054300;28;20055;-81
2021/12/07 13:39:47;;;;;;;12.52;3.95;;;5.40;99.90;;;;;;5075609;28;20044;-82
2021/12/07 13:42:16;;;;;;;11.30;3.45;;;5.30;99.90;;;;;;5088791;28;20036;-81
2021/12/07 13:44:49;;;;;;;12.40;3.75;;;5.30;99.90;;;;;;5054990;28;20048;-80
2021/12/07 13:47:24;;;;;;;13.98;3.65;;;5.20;99.90;;;;;;5033897;28;20086;-77
2021/12/07 13:50:06;;;;;;;12.23;3.38;;;5.20;99.90;;;;;;5058882;28;20535;-81
2021/12/07 13:52:43;;;;;;;14.00;4.78;;;5.20;99.90;;;;;;5056987;28;20041;-81
2021/12/07 13:55:13;;;;;;;13.48;3.40;;;5.10;99.90;;;;;;5034841;28;20147;-81
2021/12/07 13:57:41;;;;;;;7.65;3.10;;;5.10;99.90;;;;;;5051380;28;20080;-81
2021/12/07 14:00:18;;;;;;;11.82;4.20;;;5.10;99.90;;;;;;5034211;28;20152;-81
2021/12/07 14:02:50;;;;;;;16.92;4.80;;;5.00;99.90;;;;;;5052318;28;20072;-80
2021/12/07 14:05:20;;;;;;;17.52;3.63;;;5.00;99.90;;;;;;5068815;28;20138;-81
2021/12/07 14:07:47;;;;;;;;;;;4.90;99.90;;;;;;5071400;28;20071;-81
2021/12/07 14:10:16;;;;;;;14.30;5.95;;;4.90;99.90;;;;;;5091784;28;19927;-76
2021/12/07 14:12:41;;;;;;;12.80;4.43;;;4.80;99.90;;;;;;5093089;28;20048;-80
2021/12/07 14:15:24;;;;;;;9.40;3.95;;;4.70;99.90;;;;;;5082500;28;20071;-82
2021/12/07 14:17:53;;;;;;;24.90;6.28;;;4.70;99.90;;;;;;5060083;28;20047;-86
2021/12/07 14:20:34;;;;;;;18.27;7.35;;;4.60;99.90;;;;;;5060124;28;20105;-77
2021/12/07 14:23:13;;;;;;;9.98;4.00;;;4.60;99.90;;;;;;5066747;28;20482;-78
2021/12/07 14:25:50;;;;;;;18.23;4.28;;;4.50;99.90;;;;;;5039909;28;20115;-78
2021/12/07 14:28:33;;;;;;;20.67;4.68;;;4.50;99.90;;;;;;5058337;28;20166;-77
2021/12/07 14:31:05;;;;;;;10.90;3.55;;;4.50;99.90;;;;;;5053420;28;20079;-77
2021/12/07 14:33:35;;;;;;;13.63;4.72;;;4.50;99.90;;;;;;5053305;28;20033;-76